sensor_id;sensor_type;location;lat;lon;timestamp;pressure;altitude;pressure_sealevel;temperature;humidity
14204;BME280;7185;51.854;6.622;2023-12-28T00:01:19;100565.16;;;14.30;62.30
14204;BME280;7185;51.854;6.622;2023-12-28T00:03:51;100559.31;;;14.45;61.63
14204;BME280;7185;51.854;6.622;2023-12-28T00:06:24;100560.50;;;14.11;62.18
14204;BME280;7185;51.854;6.622;2023-12-28T00:08:56;100554.84;;;14.22;61.28
14204;BME280;7185;51.854;6.622;2023-12-28T00:11:27;100568.50;;;14.35;61.56
14204;BME280;7185;51.854;6.622;2023-12-28T00:13:59;100563.53;;;14.26;61.85
14204;BME280;7185;51.854;6.622;2023-12-28T00:16:31;100570.09;;;14.64;61.01
14204;BME280;7185;51.854;6.622;2023-12-28T00:19:04;100575.16;;;14.20;62.73
14204;BME280;7185;51.854;6.622;2023-12-28T00:21:38;100563.22;;;14.60;61.95
14204;BME280;7185;51.854;6.622;2023-12-28T00:24:10;100576.00;;;14.73;61.50
14204;BME280;7185;51.854;6.622;2023-12-28T00:26:42;100592.59;;;14.24;61.89
14204;BME280;7185;51.854;6.622;2023-12-28T00:29:13;100599.41;;;14.57;62.04
14204;BME280;7185;51.854;6.622;2023-12-28T00:31:45;100582.47;;;14.88;61.37
14204;BME280;7185;51.854;6.622;2023-12-28T00:34:17;100600.13;;;14.35;62.39
14204;BME280;7185;51.854;6.622;2023-12-28T00:36:50;100597.81;;;14.26;63.05
14204;BME280;7185;51.854;6.622;2023-12-28T00:39:21;100585.47;;;14.53;62.54
14204;BME280;7185;51.854;6.622;2023-12-28T00:41:53;100597.63;;;14.57;62.25
14204;BME280;7185;51.854;6.622;2023-12-28T00:44:25;100598.97;;;14.17;62.93
14204;BME280;7185;51.854;6.622;2023-12-28T00:46:56;100594.19;;;14.80;62.00
14204;BME280;7185;51.854;6.622;2023-12-28T00:49:28;100593.91;;;14.63;62.89
14204;BME280;7185;51.854;6.622;2023-12-28T00:52:01;100592.88;;;14.69;62.68
14204;BME280;7185;51.854;6.622;2023-12-28T00:54:35;100598.44;;;14.59;63.50
14204;BME280;7185;51.854;6.622;2023-12-28T00:57:07;100600.38;;;14.54;63.07
14204;BME280;7185;51.854;6.622;2023-12-28T00:59:39;100606.19;;;14.64;63.20
14204;BME280;7185;51.854;6.622;2023-12-28T01:02:10;100608.13;;;14.33;64.03
14204;BME280;7185;51.854;6.622;2023-12-28T01:04:42;100606.66;;;15.01;62.78
14204;BME280;7185;51.854;6.622;2023-12-28T01:07:15;100611.38;;;15.16;61.93
14204;BME280;7185;51.854;6.622;2023-12-28T01:09:47;100620.00;;;14.72;62.96
14204;BME280;7185;51.854;6.622;2023-12-28T01:12:19;100625.28;;;14.72;63.57
14204;BME280;7185;51.854;6.622;2023-12-28T01:14:50;100626.06;;;14.22;64.83
14204;BME280;7185;51.854;6.622;2023-12-28T01:17:22;100625.63;;;14.61;63.97
14204;BME280;7185;51.854;6.622;2023-12-28T01:19:54;100642.59;;;14.54;64.35
14204;BME280;7185;51.854;6.622;2023-12-28T01:22:27;100636.16;;;14.36;64.76
14204;BME280;7185;51.854;6.622;2023-12-28T01:24:58;100642.88;;;14.45;65.04
14204;BME280;7185;51.854;6.622;2023-12-28T01:27:30;100645.09;;;14.84;63.85
14204;BME280;7185;51.854;6.622;2023-12-28T01:30:02;100647.47;;;14.66;64.29
14204;BME280;7185;51.854;6.622;2023-12-28T01:32:34;100648.72;;;14.55;64.58
14204;BME280;7185;51.854;6.622;2023-12-28T01:35:06;100649.28;;;14.38;65.15
14204;BME280;7185;51.854;6.622;2023-12-28T01:37:40;100662.41;;;14.39;65.24
14204;BME280;7185;51.854;6.622;2023-12-28T01:40:11;100657.28;;;14.88;64.23
14204;BME280;7185;51.854;6.622;2023-12-28T01:42:44;100657.38;;;14.85;64.59
14204;BME280;7185;51.854;6.622;2023-12-28T01:45:17;100645.59;;;14.95;63.89
14204;BME280;7185;51.854;6.622;2023-12-28T01:47:48;100654.78;;;14.84;64.67
14204;BME280;7185;51.854;6.622;2023-12-28T01:50:23;100666.94;;;14.62;64.71
14204;BME280;7185;51.854;6.622;2023-12-28T01:52:58;100660.44;;;14.73;65.17
14204;BME280;7185;51.854;6.622;2023-12-28T01:55:32;100663.25;;;14.93;64.58
14204;BME280;7185;51.854;6.622;2023-12-28T01:58:05;100662.78;;;14.82;64.91
14204;BME280;7185;51.854;6.622;2023-12-28T02:00:37;100657.81;;;14.46;66.08
14204;BME280;7185;51.854;6.622;2023-12-28T02:03:09;100666.38;;;14.26;66.88
14204;BME280;7185;51.854;6.622;2023-12-28T02:05:41;100669.59;;;14.61;66.03
14204;BME280;7185;51.854;6.622;2023-12-28T02:08:14;100672.47;;;13.99;67.84
14204;BME280;7185;51.854;6.622;2023-12-28T02:10:46;100660.91;;;14.84;65.65
14204;BME280;7185;51.854;6.622;2023-12-28T02:13:18;100671.41;;;14.33;67.51
14204;BME280;7185;51.854;6.622;2023-12-28T02:15:54;100674.47;;;14.75;66.50
14204;BME280;7185;51.854;6.622;2023-12-28T02:18:32;100668.31;;;15.00;65.31
14204;BME280;7185;51.854;6.622;2023-12-28T02:21:06;100683.34;;;14.72;66.00
14204;BME280;7185;51.854;6.622;2023-12-28T02:23:46;100680.91;;;14.64;66.48
14204;BME280;7185;51.854;6.622;2023-12-28T02:26:19;100667.31;;;15.04;65.04
14204;BME280;7185;51.854;6.622;2023-12-28T02:28:50;100668.75;;;14.60;66.14
14204;BME280;7185;51.854;6.622;2023-12-28T02:31:28;100663.00;;;15.01;65.42
14204;BME280;7185;51.854;6.622;2023-12-28T02:34:06;100660.38;;;15.00;65.19
14204;BME280;7185;51.854;6.622;2023-12-28T02:36:41;100675.72;;;14.08;68.07
14204;BME280;7185;51.854;6.622;2023-12-28T02:39:16;100666.84;;;14.65;66.36
14204;BME280;7185;51.854;6.622;2023-12-28T02:41:51;100659.53;;;14.74;66.17
14204;BME280;7185;51.854;6.622;2023-12-28T02:44:23;100668.63;;;14.63;66.41
14204;BME280;7185;51.854;6.622;2023-12-28T02:46:54;100673.69;;;14.44;66.98
14204;BME280;7185;51.854;6.622;2023-12-28T02:49:26;100676.47;;;14.40;66.98
14204;BME280;7185;51.854;6.622;2023-12-28T02:51:58;100671.69;;;14.24;67.72
14204;BME280;7185;51.854;6.622;2023-12-28T02:54:30;100663.31;;;14.38;67.05
14204;BME280;7185;51.854;6.622;2023-12-28T02:57:03;100654.34;;;14.44;67.14
14204;BME280;7185;51.854;6.622;2023-12-28T02:59:35;100649.25;;;14.64;66.88
14204;BME280;7185;51.854;6.622;2023-12-28T03:02:07;100653.25;;;14.24;67.84
14204;BME280;7185;51.854;6.622;2023-12-28T03:04:38;100647.13;;;14.49;67.23
14204;BME280;7185;51.854;6.622;2023-12-28T03:07:10;100664.22;;;14.10;68.60
14204;BME280;7185;51.854;6.622;2023-12-28T03:09:41;100649.25;;;14.64;67.13
14204;BME280;7185;51.854;6.622;2023-12-28T03:12:14;100642.25;;;14.63;66.88
14204;BME280;7185;51.854;6.622;2023-12-28T03:14:46;100638.72;;;14.38;67.83
14204;BME280;7185;51.854;6.622;2023-12-28T03:17:18;100620.22;;;14.39;67.40
14204;BME280;7185;51.854;6.622;2023-12-28T03:19:50;100629.38;;;14.81;66.61
14204;BME280;7185;51.854;6.622;2023-12-28T03:22:22;100624.19;;;14.78;66.61
14204;BME280;7185;51.854;6.622;2023-12-28T03:24:53;100626.84;;;14.51;67.67
14204;BME280;7185;51.854;6.622;2023-12-28T03:27:29;100632.34;;;14.72;67.05
14204;BME280;7185;51.854;6.622;2023-12-28T03:30:00;100624.69;;;14.37;68.51
14204;BME280;7185;51.854;6.622;2023-12-28T03:32:32;100631.25;;;14.25;68.80
14204;BME280;7185;51.854;6.622;2023-12-28T03:35:04;100627.38;;;14.35;68.25
14204;BME280;7185;51.854;6.622;2023-12-28T03:37:37;100638.13;;;14.29;68.10
14204;BME280;7185;51.854;6.622;2023-12-28T03:40:10;100626.56;;;14.86;66.69
14204;BME280;7185;51.854;6.622;2023-12-28T03:42:43;100621.09;;;14.13;69.10
14204;BME280;7185;51.854;6.622;2023-12-28T03:45:15;100629.81;;;14.69;67.60
14204;BME280;7185;51.854;6.622;2023-12-28T03:47:47;100624.00;;;14.57;68.26
14204;BME280;7185;51.854;6.622;2023-12-28T03:50:18;100619.66;;;14.29;69.06
14204;BME280;7185;51.854;6.622;2023-12-28T03:52:50;100630.06;;;14.86;67.35
14204;BME280;7185;51.854;6.622;2023-12-28T03:55:22;100633.94;;;15.01;67.17
14204;BME280;7185;51.854;6.622;2023-12-28T03:57:55;100614.09;;;14.39;68.63
14204;BME280;7185;51.854;6.622;2023-12-28T04:00:26;100616.19;;;14.54;68.62
14204;BME280;7185;51.854;6.622;2023-12-28T04:02:58;100634.00;;;14.47;68.74
14204;BME280;7185;51.854;6.622;2023-12-28T04:05:30;100625.47;;;14.91;67.34
14204;BME280;7185;51.854;6.622;2023-12-28T04:08:02;100617.44;;;14.17;69.57
14204;BME280;7185;51.854;6.622;2023-12-28T04:10:34;100619.13;;;14.72;67.76
14204;BME280;7185;51.854;6.622;2023-12-28T04:13:09;100636.50;;;14.52;68.47
14204;BME280;7185;51.854;6.622;2023-12-28T04:15:41;100626.41;;;14.63;68.33
14204;BME280;7185;51.854;6.622;2023-12-28T04:18:13;100644.47;;;14.50;68.42
14204;BME280;7185;51.854;6.622;2023-12-28T04:20:44;100644.06;;;14.36;69.15
14204;BME280;7185;51.854;6.622;2023-12-28T04:23:16;100651.84;;;14.41;68.76
14204;BME280;7185;51.854;6.622;2023-12-28T04:25:48;100633.25;;;14.17;69.77
14204;BME280;7185;51.854;6.622;2023-12-28T04:28:21;100633.59;;;14.60;68.43
14204;BME280;7185;51.854;6.622;2023-12-28T04:30:52;100627.06;;;14.45;68.92
14204;BME280;7185;51.854;6.622;2023-12-28T04:33:24;100622.28;;;14.56;68.59
14204;BME280;7185;51.854;6.622;2023-12-28T04:35:56;100622.88;;;14.64;68.13
14204;BME280;7185;51.854;6.622;2023-12-28T04:38:28;100631.00;;;14.58;68.51
14204;BME280;7185;51.854;6.622;2023-12-28T04:40:59;100629.63;;;14.98;67.14
14204;BME280;7185;51.854;6.622;2023-12-28T04:43:33;100626.72;;;14.81;67.25
14204;BME280;7185;51.854;6.622;2023-12-28T04:46:05;100629.28;;;14.57;68.08
14204;BME280;7185;51.854;6.622;2023-12-28T04:48:36;100635.88;;;14.44;68.97
14204;BME280;7185;51.854;6.622;2023-12-28T04:51:08;100625.81;;;14.82;67.51
14204;BME280;7185;51.854;6.622;2023-12-28T04:53:40;100626.06;;;14.74;67.99
14204;BME280;7185;51.854;6.622;2023-12-28T04:56:12;100631.53;;;14.43;68.50
14204;BME280;7185;51.854;6.622;2023-12-28T04:58:45;100618.53;;;14.89;67.62
14204;BME280;7185;51.854;6.622;2023-12-28T05:01:17;100627.38;;;14.35;68.31
14204;BME280;7185;51.854;6.622;2023-12-28T05:03:49;100620.94;;;14.70;67.94
14204;BME280;7185;51.854;6.622;2023-12-28T05:06:20;100624.88;;;15.32;66.04
14204;BME280;7185;51.854;6.622;2023-12-28T05:08:52;100630.31;;;15.27;65.98
14204;BME280;7185;51.854;6.622;2023-12-28T05:11:24;100652.09;;;15.10;66.36
14204;BME280;7185;51.854;6.622;2023-12-28T05:13:57;100635.09;;;14.94;66.55
14204;BME280;7185;51.854;6.622;2023-12-28T05:16:28;100645.66;;;14.94;67.18
14204;BME280;7185;51.854;6.622;2023-12-28T05:19:00;100645.03;;;15.11;66.48
14204;BME280;7185;51.854;6.622;2023-12-28T05:21:32;100631.31;;;14.76;67.24
14204;BME280;7185;51.854;6.622;2023-12-28T05:24:04;100654.31;;;14.97;66.75
14204;BME280;7185;51.854;6.622;2023-12-28T05:26:36;100661.66;;;15.13;66.55
14204;BME280;7185;51.854;6.622;2023-12-28T05:29:09;100671.28;;;14.90;67.09
14204;BME280;7185;51.854;6.622;2023-12-28T05:31:41;100665.94;;;15.17;66.42
14204;BME280;7185;51.854;6.622;2023-12-28T05:34:12;100668.91;;;15.08;66.74
14204;BME280;7185;51.854;6.622;2023-12-28T05:36:44;100665.78;;;14.96;66.97
14204;BME280;7185;51.854;6.622;2023-12-28T05:39:16;100671.84;;;14.98;67.35
14204;BME280;7185;51.854;6.622;2023-12-28T05:41:48;100681.41;;;14.77;67.60
14204;BME280;7185;51.854;6.622;2023-12-28T05:44:22;100681.13;;;14.85;67.42
14204;BME280;7185;51.854;6.622;2023-12-28T05:46:54;100690.69;;;15.38;65.89
14204;BME280;7185;51.854;6.622;2023-12-28T05:49:25;100685.53;;;15.35;65.90
14204;BME280;7185;51.854;6.622;2023-12-28T05:51:58;100689.56;;;15.20;66.48
14204;BME280;7185;51.854;6.622;2023-12-28T05:54:30;100703.38;;;15.03;67.00
14204;BME280;7185;51.854;6.622;2023-12-28T05:57:01;100693.41;;;15.37;65.86
14204;BME280;7185;51.854;6.622;2023-12-28T05:59:37;100689.31;;;15.28;66.21
14204;BME280;7185;51.854;6.622;2023-12-28T06:02:09;100688.06;;;15.13;66.42
14204;BME280;7185;51.854;6.622;2023-12-28T06:04:40;100698.09;;;14.78;67.14
14204;BME280;7185;51.854;6.622;2023-12-28T06:07:12;100688.44;;;15.27;66.24
14204;BME280;7185;51.854;6.622;2023-12-28T06:09:44;100695.06;;;14.90;66.88
14204;BME280;7185;51.854;6.622;2023-12-28T06:12:16;100684.59;;;15.12;66.74
14204;BME280;7185;51.854;6.622;2023-12-28T06:14:49;100698.16;;;14.76;67.35
14204;BME280;7185;51.854;6.622;2023-12-28T06:17:21;100674.19;;;14.82;67.52
14204;BME280;7185;51.854;6.622;2023-12-28T06:19:52;100684.22;;;14.98;66.62
14204;BME280;7185;51.854;6.622;2023-12-28T06:22:24;100684.53;;;14.89;67.02
14204;BME280;7185;51.854;6.622;2023-12-28T06:24:57;100686.97;;;15.44;65.59
14204;BME280;7185;51.854;6.622;2023-12-28T06:27:29;100683.00;;;15.07;66.78
14204;BME280;7185;51.854;6.622;2023-12-28T06:30:03;100683.25;;;15.01;66.45
14204;BME280;7185;51.854;6.622;2023-12-28T06:32:34;100690.13;;;15.05;66.92
14204;BME280;7185;51.854;6.622;2023-12-28T06:35:06;100676.59;;;15.14;66.05
14204;BME280;7185;51.854;6.622;2023-12-28T06:37:39;100695.06;;;15.39;65.29
14204;BME280;7185;51.854;6.622;2023-12-28T06:40:11;100710.59;;;14.73;66.75
14204;BME280;7185;51.854;6.622;2023-12-28T06:42:43;100705.63;;;14.90;66.64
14204;BME280;7185;51.854;6.622;2023-12-28T06:45:16;100698.25;;;15.24;66.24
14204;BME280;7185;51.854;6.622;2023-12-28T06:47:48;100701.88;;;15.21;65.89
14204;BME280;7185;51.854;6.622;2023-12-28T06:50:19;100706.69;;;15.10;66.40
14204;BME280;7185;51.854;6.622;2023-12-28T06:52:51;100707.06;;;14.99;66.63
14204;BME280;7185;51.854;6.622;2023-12-28T06:55:23;100702.19;;;15.12;66.36
14204;BME280;7185;51.854;6.622;2023-12-28T06:57:55;100701.44;;;15.08;66.30
14204;BME280;7185;51.854;6.622;2023-12-28T07:00:28;100698.41;;;15.19;66.03
14204;BME280;7185;51.854;6.622;2023-12-28T07:02:59;100720.50;;;14.91;66.34
14204;BME280;7185;51.854;6.622;2023-12-28T07:05:31;100712.66;;;15.15;66.12
14204;BME280;7185;51.854;6.622;2023-12-28T07:08:03;100710.91;;;14.90;66.75
14204;BME280;7185;51.854;6.622;2023-12-28T07:10:35;100695.00;;;14.92;66.91
14204;BME280;7185;51.854;6.622;2023-12-28T07:13:07;100695.00;;;14.92;66.58
14204;BME280;7185;51.854;6.622;2023-12-28T07:15:40;100698.00;;;15.32;65.64
14204;BME280;7185;51.854;6.622;2023-12-28T07:18:12;100717.38;;;14.80;66.76
14204;BME280;7185;51.854;6.622;2023-12-28T07:20:43;100713.41;;;14.93;66.47
14204;BME280;7185;51.854;6.622;2023-12-28T07:23:15;100714.16;;;14.97;66.43
14204;BME280;7185;51.854;6.622;2023-12-28T07:25:47;100712.81;;;14.85;66.77
14204;BME280;7185;51.854;6.622;2023-12-28T07:28:19;100718.25;;;15.06;65.77
14204;BME280;7185;51.854;6.622;2023-12-28T07:30:53;100722.69;;;15.30;65.39
14204;BME280;7185;51.854;6.622;2023-12-28T07:33:24;100732.03;;;14.89;66.13
14204;BME280;7185;51.854;6.622;2023-12-28T07:35:57;100723.00;;;15.21;65.13
14204;BME280;7185;51.854;6.622;2023-12-28T07:38:30;100726.56;;;15.20;65.57
14204;BME280;7185;51.854;6.622;2023-12-28T07:41:01;100743.97;;;14.47;67.08
14204;BME280;7185;51.854;6.622;2023-12-28T07:43:33;100754.38;;;15.05;66.31
14204;BME280;7185;51.854;6.622;2023-12-28T07:46:07;100747.44;;;14.76;66.89
14204;BME280;7185;51.854;6.622;2023-12-28T07:48:39;100752.91;;;14.70;66.32
14204;BME280;7185;51.854;6.622;2023-12-28T07:51:13;100741.84;;;14.85;65.61
14204;BME280;7185;51.854;6.622;2023-12-28T07:53:44;100756.09;;;15.06;65.87
14204;BME280;7185;51.854;6.622;2023-12-28T07:56:16;100754.66;;;14.97;65.71
14204;BME280;7185;51.854;6.622;2023-12-28T07:58:48;100750.91;;;15.28;65.25
14204;BME280;7185;51.854;6.622;2023-12-28T08:01:21;100751.03;;;15.25;65.35
14204;BME280;7185;51.854;6.622;2023-12-28T08:03:53;100756.28;;;14.75;66.19
14204;BME280;7185;51.854;6.622;2023-12-28T08:06:25;100748.03;;;15.11;65.63
14204;BME280;7185;51.854;6.622;2023-12-28T08:08:56;100765.78;;;15.06;65.09
14204;BME280;7185;51.854;6.622;2023-12-28T08:11:29;100763.09;;;14.82;66.01
14204;BME280;7185;51.854;6.622;2023-12-28T08:14:01;100771.50;;;14.93;65.35
14204;BME280;7185;51.854;6.622;2023-12-28T08:16:34;100780.34;;;14.64;65.56
14204;BME280;7185;51.854;6.622;2023-12-28T08:19:06;100783.09;;;14.89;65.02
14204;BME280;7185;51.854;6.622;2023-12-28T08:21:38;100774.44;;;14.84;65.45
14204;BME280;7185;51.854;6.622;2023-12-28T08:24:10;100766.69;;;15.05;64.87
14204;BME280;7185;51.854;6.622;2023-12-28T08:26:41;100766.09;;;14.70;65.31
14204;BME280;7185;51.854;6.622;2023-12-28T08:29:13;100768.03;;;14.91;65.74
14204;BME280;7185;51.854;6.622;2023-12-28T08:31:46;100769.09;;;15.38;64.29
14204;BME280;7185;51.854;6.622;2023-12-28T08:34:18;100785.78;;;15.13;64.85
14204;BME280;7185;51.854;6.622;2023-12-28T08:36:49;100787.59;;;15.38;64.09
14204;BME280;7185;51.854;6.622;2023-12-28T08:39:22;100792.97;;;15.35;64.39
14204;BME280;7185;51.854;6.622;2023-12-28T08:41:55;100798.56;;;15.00;65.32
14204;BME280;7185;51.854;6.622;2023-12-28T08:44:26;100803.84;;;15.00;64.88
14204;BME280;7185;51.854;6.622;2023-12-28T08:46:59;100805.69;;;15.23;64.79
14204;BME280;7185;51.854;6.622;2023-12-28T08:49:32;100797.88;;;15.20;64.15
14204;BME280;7185;51.854;6.622;2023-12-28T08:52:07;100793.03;;;15.33;64.20
14204;BME280;7185;51.854;6.622;2023-12-28T08:54:40;100798.03;;;15.41;64.33
14204;BME280;7185;51.854;6.622;2023-12-28T08:57:12;100778.31;;;15.51;63.84
14204;BME280;7185;51.854;6.622;2023-12-28T08:59:43;100777.34;;;16.47;61.26
14204;BME280;7185;51.854;6.622;2023-12-28T09:02:16;100776.47;;;15.77;63.19
14204;BME280;7185;51.854;6.622;2023-12-28T09:04:48;100773.94;;;15.50;64.17
14204;BME280;7185;51.854;6.622;2023-12-28T09:07:20;100790.84;;;15.70;64.12
14204;BME280;7185;51.854;6.622;2023-12-28T09:09:52;100775.53;;;15.54;64.05
14204;BME280;7185;51.854;6.622;2023-12-28T09:12:23;100789.09;;;15.45;64.31
14204;BME280;7185;51.854;6.622;2023-12-28T09:14:55;100802.34;;;15.18;64.93
14204;BME280;7185;51.854;6.622;2023-12-28T09:17:28;100809.16;;;15.25;64.38
14204;BME280;7185;51.854;6.622;2023-12-28T09:20:00;100805.25;;;15.61;63.74
14204;BME280;7185;51.854;6.622;2023-12-28T09:22:33;100812.06;;;15.43;64.20
14204;BME280;7185;51.854;6.622;2023-12-28T09:25:06;100831.41;;;15.69;64.00
14204;BME280;7185;51.854;6.622;2023-12-28T09:27:38;100825.19;;;16.65;60.18
14204;BME280;7185;51.854;6.622;2023-12-28T09:30:10;100823.16;;;16.49;60.40
14204;BME280;7185;51.854;6.622;2023-12-28T09:32:43;100847.63;;;16.32;61.12
14204;BME280;7185;51.854;6.622;2023-12-28T09:35:15;100840.88;;;16.92;59.99
14204;BME280;7185;51.854;6.622;2023-12-28T09:37:46;100833.88;;;16.22;60.83
14204;BME280;7185;51.854;6.622;2023-12-28T09:40:19;100849.19;;;16.38;60.18
14204;BME280;7185;51.854;6.622;2023-12-28T09:42:56;100839.25;;;15.46;64.10
14204;BME280;7185;51.854;6.622;2023-12-28T09:45:28;100842.16;;;15.64;63.41
14204;BME280;7185;51.854;6.622;2023-12-28T09:48:02;100842.09;;;15.66;63.52
14204;BME280;7185;51.854;6.622;2023-12-28T09:50:35;100851.31;;;15.28;64.92
14204;BME280;7185;51.854;6.622;2023-12-28T09:53:06;100852.38;;;15.48;64.19
14204;BME280;7185;51.854;6.622;2023-12-28T09:55:38;100851.03;;;15.09;64.92
14204;BME280;7185;51.854;6.622;2023-12-28T09:58:11;100842.75;;;15.20;64.44
14204;BME280;7185;51.854;6.622;2023-12-28T10:00:45;100842.78;;;15.71;63.37
14204;BME280;7185;51.854;6.622;2023-12-28T10:03:19;100842.78;;;15.45;64.16
14204;BME280;7185;51.854;6.622;2023-12-28T10:05:51;100844.19;;;15.30;64.56
14204;BME280;7185;51.854;6.622;2023-12-28T10:08:22;100848.59;;;15.30;64.55
14204;BME280;7185;51.854;6.622;2023-12-28T10:10:54;100842.06;;;15.15;64.58
14204;BME280;7185;51.854;6.622;2023-12-28T10:13:29;100842.75;;;15.20;64.93
14204;BME280;7185;51.854;6.622;2023-12-28T10:16:07;100845.47;;;15.19;64.69
14204;BME280;7185;51.854;6.622;2023-12-28T10:18:41;100841.81;;;15.99;62.32
14204;BME280;7185;51.854;6.622;2023-12-28T10:21:14;100841.19;;;16.62;60.66
14204;BME280;7185;51.854;6.622;2023-12-28T10:23:45;100832.44;;;17.04;59.63
14204;BME280;7185;51.854;6.622;2023-12-28T10:26:18;100839.13;;;16.24;61.91
14204;BME280;7185;51.854;6.622;2023-12-28T10:28:49;100850.44;;;16.04;62.14
14204;BME280;7185;51.854;6.622;2023-12-28T10:31:21;100838.34;;;15.97;62.22
14204;BME280;7185;51.854;6.622;2023-12-28T10:33:57;100843.47;;;15.76;nan
14204;BME280;7185;51.854;6.622;2023-12-28T10:36:30;100841.81;;;15.99;62.69
14204;BME280;7185;51.854;6.622;2023-12-28T10:39:04;100850.03;;;15.91;61.97
14204;BME280;7185;51.854;6.622;2023-12-28T10:41:37;100858.44;;;15.52;62.99
14204;BME280;7185;51.854;6.622;2023-12-28T10:44:13;100848.75;;;15.52;63.00
14204;BME280;7185;51.854;6.622;2023-12-28T10:46:50;100838.03;;;15.81;62.85
14204;BME280;7185;51.854;6.622;2023-12-28T10:49:25;100850.88;;;16.39;61.65
14204;BME280;7185;51.854;6.622;2023-12-28T10:51:57;100840.09;;;16.21;61.44
14204;BME280;7185;51.854;6.622;2023-12-28T10:54:37;100842.84;;;16.18;62.15
14204;BME280;7185;51.854;6.622;2023-12-28T10:57:21;100839.72;;;15.83;61.94
14204;BME280;7185;51.854;6.622;2023-12-28T11:00:02;100841.59;;;16.05;61.73
14204;BME280;7185;51.854;6.622;2023-12-28T11:02:38;100844.69;;;15.92;61.60
14204;BME280;7185;51.854;6.622;2023-12-28T11:05:13;100841.53;;;16.30;61.47
14204;BME280;7185;51.854;6.622;2023-12-28T11:07:47;100832.19;;;16.44;60.61
14204;BME280;7185;51.854;6.622;2023-12-28T11:10:24;100837.69;;;16.15;61.92
14204;BME280;7185;51.854;6.622;2023-12-28T11:12:56;100836.50;;;16.46;60.59
14204;BME280;7185;51.854;6.622;2023-12-28T11:15:29;100835.78;;;16.65;59.92
14204;BME280;7185;51.854;6.622;2023-12-28T11:18:02;100836.78;;;16.62;59.82
14204;BME280;7185;51.854;6.622;2023-12-28T11:20:35;100838.03;;;16.30;60.32
14204;BME280;7185;51.854;6.622;2023-12-28T11:23:07;100832.41;;;16.15;60.60
14204;BME280;7185;51.854;6.622;2023-12-28T11:25:39;100828.50;;;15.76;61.44
14204;BME280;7185;51.854;6.622;2023-12-28T11:28:12;100828.25;;;15.84;61.46
14204;BME280;7185;51.854;6.622;2023-12-28T11:30:46;100829.44;;;15.50;61.98
14204;BME280;7185;51.854;6.622;2023-12-28T11:33:18;100813.75;;;16.18;61.39
14204;BME280;7185;51.854;6.622;2023-12-28T11:35:52;100823.13;;;16.27;60.81
14204;BME280;7185;51.854;6.622;2023-12-28T11:38:25;100813.78;;;15.95;61.20
14204;BME280;7185;51.854;6.622;2023-12-28T11:40:57;100811.25;;;16.15;60.54
14204;BME280;7185;51.854;6.622;2023-12-28T11:43:28;100809.03;;;16.27;60.04
14204;BME280;7185;51.854;6.622;2023-12-28T11:46:03;100805.25;;;16.56;59.84
14204;BME280;7185;51.854;6.622;2023-12-28T11:48:36;100809.03;;;16.27;60.30
14204;BME280;7185;51.854;6.622;2023-12-28T11:51:09;100779.00;;;16.28;60.18
14204;BME280;7185;51.854;6.622;2023-12-28T11:53:41;100777.41;;;16.68;59.18
14204;BME280;7185;51.854;6.622;2023-12-28T11:56:15;100785.53;;;16.41;60.25
14204;BME280;7185;51.854;6.622;2023-12-28T11:58:47;100788.25;;;16.39;59.50
14204;BME280;7185;51.854;6.622;2023-12-28T12:01:19;100782.63;;;16.47;59.60
14204;BME280;7185;51.854;6.622;2023-12-28T12:03:51;100767.56;;;16.94;58.73
14204;BME280;7185;51.854;6.622;2023-12-28T12:06:24;100766.34;;;16.58;58.61
14204;BME280;7185;51.854;6.622;2023-12-28T12:08:56;100776.16;;;16.99;58.66
14204;BME280;7185;51.854;6.622;2023-12-28T12:11:29;100780.94;;;17.11;57.94
14204;BME280;7185;51.854;6.622;2023-12-28T12:14:01;100769.81;;;17.24;57.52
14204;BME280;7185;51.854;6.622;2023-12-28T12:16:35;100774.16;;;17.45;57.26
14204;BME280;7185;51.854;6.622;2023-12-28T12:19:07;100767.91;;;16.84;57.92
14204;BME280;7185;51.854;6.622;2023-12-28T12:21:40;100775.78;;;16.86;57.83
14204;BME280;7185;51.854;6.622;2023-12-28T12:24:12;100777.66;;;16.62;58.00
14204;BME280;7185;51.854;6.622;2023-12-28T12:26:45;100765.47;;;16.57;58.37
14204;BME280;7185;51.854;6.622;2023-12-28T12:29:17;100775.44;;;16.51;58.91
14204;BME280;7185;51.854;6.622;2023-12-28T12:31:49;100784.50;;;15.99;58.74
14204;BME280;7185;51.854;6.622;2023-12-28T12:34:22;100766.69;;;16.04;59.48
14204;BME280;7185;51.854;6.622;2023-12-28T12:36:55;100772.31;;;16.41;58.46
14204;BME280;7185;51.854;6.622;2023-12-28T12:39:29;100765.84;;;16.48;58.12
14204;BME280;7185;51.854;6.622;2023-12-28T12:42:02;100766.19;;;16.39;58.38
14204;BME280;7185;51.854;6.622;2023-12-28T12:44:34;100771.81;;;16.53;58.85
14204;BME280;7185;51.854;6.622;2023-12-28T12:47:06;100761.03;;;16.80;57.89
14204;BME280;7185;51.854;6.622;2023-12-28T12:49:38;100761.53;;;16.46;58.38
14204;BME280;7185;51.854;6.622;2023-12-28T12:52:12;100750.41;;;16.37;58.91
14204;BME280;7185;51.854;6.622;2023-12-28T12:54:52;100760.16;;;16.13;59.51
14204;BME280;7185;51.854;6.622;2023-12-28T12:57:39;100756.13;;;16.27;59.08
14204;BME280;7185;51.854;6.622;2023-12-28T13:00:12;100761.31;;;16.30;58.91
14204;BME280;7185;51.854;6.622;2023-12-28T13:02:44;100751.22;;;15.93;59.23
14204;BME280;7185;51.854;6.622;2023-12-28T13:05:17;100758.78;;;16.92;57.02
14204;BME280;7185;51.854;6.622;2023-12-28T13:07:50;100759.66;;;17.73;54.48
14204;BME280;7185;51.854;6.622;2023-12-28T13:10:22;100758.31;;;17.64;55.09
14204;BME280;7185;51.854;6.622;2023-12-28T13:12:54;100759.34;;;17.20;55.91
14204;BME280;7185;51.854;6.622;2023-12-28T13:15:26;100765.84;;;16.48;57.39
14204;BME280;7185;51.854;6.622;2023-12-28T13:17:57;100770.41;;;16.67;58.23
14204;BME280;7185;51.854;6.622;2023-12-28T13:20:30;100771.38;;;16.20;59.54
14204;BME280;7185;51.854;6.622;2023-12-28T13:23:03;100755.22;;;16.04;59.43
14204;BME280;7185;51.854;6.622;2023-12-28T13:25:35;100765.84;;;16.26;59.19
14204;BME280;7185;51.854;6.622;2023-12-28T13:28:06;100762.94;;;16.10;60.33